CheckWX is a tool to help pilots better visualize weather data.  It is not intended as a substitute for an official pre-flight weather briefing.

17:33:52 UTC

KJBR METAR
Jonesboro Municipal Airport
Jonesboro, Arkansas, USA
Current

41 mins ago

KJBR 251653Z AUTO 30009KT 10SM FEW027 05/M01 A3018 RMK AO2 SLP222 T00501011 $
Observed
Jan-25 @ 16:53 UTC
Wind
  • 300° at 9 KTS
Visibility
10 SM
Flight Rules
VFR
Cloud Levels
  • Few at 2,700' AGL
Temperature
C / 41°F
Dewpoint
-1°C / 30°F
Humidity
66%
Altimeter
30.18" Hg
Pressure
1022.02 hPa
Previous

2 hours ago

KJBR 251553Z AUTO 28008KT 10SM FEW028 04/M02 A3018 RMK AO2 SLP221 T00441017 $
Observed
Jan-25 @ 15:53 UTC
Wind
  • 280° at 8 KTS
Visibility
10 SM
Flight Rules
VFR
Cloud Levels
  • Few at 2,800' AGL
Temperature
C / 39°F
Dewpoint
-2°C / 28°F
Humidity
65%
Altimeter
30.18" Hg
Pressure
1022.02 hPa
Previous

3 hours ago

KJBR 251453Z AUTO 28008KT 10SM CLR 04/M02 A3017 RMK AO2 SLP218 T00391022 53014 $
Observed
Jan-25 @ 14:53 UTC
Wind
  • 280° at 8 KTS
Visibility
10 SM
Flight Rules
VFR
Cloud Levels
  • Clear skies
Temperature
C / 39°F
Dewpoint
-2°C / 28°F
Humidity
65%
Altimeter
30.17" Hg
Pressure
1021.72 hPa